ADDS METAR Data INFO
IDs: Format: Raw Decoded Include TAF

Data at: 1200 UTC 21 Jun 2018

KSTS 211153Z AUTO 00000KT 9SM CLR 08/07 A2997 RMK AO2 SLP143 T00780072 10117 20067 53002
KSTS 211053Z AUTO 00000KT 9SM CLR 08/08 A2997 RMK AO2 SLP142 T00830078
KSTS 210953Z AUTO 00000KT 9SM CLR 08/08 A2997 RMK AO2 SLP141 T00830078
KSTS 210853Z AUTO 00000KT 10SM CLR 10/08 A2997 RMK AO2 SLP141 T01000083 56003
KSTS 210753Z AUTO 17003KT 10SM CLR 10/09 A2997 RMK AO2 SLP142 T01000089 402560100
KSTS 210653Z AUTO 00000KT 10SM CLR 11/09 A2997 RMK AO2 SLP142 T01060094
KSTS 210553Z AUTO 00000KT 10SM CLR 12/09 A2998 RMK AO2 SLP145 T01170094 10239 20117 51010
KSTS 210453Z AUTO 00000KT 10SM CLR 13/10 A2997 RMK AO2 SLP142 T01280100
KSTS 210353Z AUTO 16007KT 10SM CLR 14/10 A2996 RMK AO2 SLP138 T01440100
KSTS 210253Z AUTO 14011KT 10SM CLR 17/10 A2995 RMK AO2 SLP134 T01720100 53000
KSTS 210153Z 14009KT 10SM CLR 20/11 A2994 RMK AO2 SLP133 T02000106
KSTS 210053Z 13013KT 10SM CLR 22/11 A2994 RMK AO2 SLP131 T02220106
KSTS 202353Z 12013KT 10SM CLR 24/12 A2995 RMK AO2 SLP134 T02390117 10256 20161 58010
KSTS 202253Z 14012KT 10SM CLR 26/12 A2996 RMK AO2 SLP138 T02560122
KSTS 202153Z 18009KT 10SM CLR 26/13 A2997 RMK AO2 SLP143 T02560128
KSTS 202053Z 17008KT 10SM CLR 24/13 A2997 RMK AO2 SLP144 T02440128 58011
KSTS 201953Z 16008KT 130V190 10SM CLR 24/13 A2999 RMK AO2 SLP148 T02390128
KSTS 201853Z VRB03KT 10SM CLR 19/12 A3000 RMK AO2 SLP154 T01940117
KSTS 201753Z VRB03KT 10SM CLR 16/11 A3001 RMK AO2 SLP155 T01610111 10161 20106 50006
KSTS 201712Z 18004KT 10SM SCT009 14/11 A3002 RMK AO2 T01440106
KSTS 201653Z COR VRB03KT 8SM BKN008 13/10 A3002 RMK AO2 SLP158 T01330100
KSTS 201553Z 15004KT 9SM OVC006 12/10 A3001 RMK AO2 SLP158 T01220100
KSTS 201453Z 00000KT 4SM BR OVC005 12/10 A2999 RMK AO2 SLP149 T01170100 50002
KSTS 201353Z 00000KT 3SM BR OVC004 11/10 A3000 RMK AO2 SLP151 T01110100
KSTS 201305Z AUTO 00000KT 9SM OVC004 11/10 A2999 RMK AO2 T01060100
KSTS 201253Z AUTO 00000KT 9SM OVC003 11/10 A2999 RMK AO2 SLP148 T01060100
KSTS 201153Z AUTO 10004KT 5SM BR OVC003 11/11 A2998 RMK AO2 SLP147 T01060106 10117 20100 51004
KSTS 201053Z AUTO 16005KT 4SM BR OVC002 11/10 A2998 RMK AO2 SLP146 T01060100
KSTS 200953Z AUTO 17006KT 4SM BR OVC002 11/11 A2998 RMK AO2 SLP145 T01060106
KSTS 200853Z AUTO 17005KT 7SM OVC003 11/11 A2997 RMK AO2 SLP143 T01110106 56011
KSTS 200810Z AUTO 15005KT 7SM OVC003 11/11 A2997 RMK AO2 T01110106
KSTS 200753Z AUTO 17006KT 7SM OVC004 11/11 A2998 RMK AO2 SLP145 T01110106 402610111
KSTS 200744Z AUTO 17005KT 8SM OVC004 11/11 A2998 RMK AO2 T01110106
KSTS 200717Z AUTO 17004KT 9SM BKN005 11/10 A2999 RMK AO2 T01110100
KSTS 200708Z AUTO 15003KT 9SM SCT005 11/10 A2999 RMK AO2 T01110100
KSTS 200653Z AUTO 14003KT 9SM CLR 11/10 A2999 RMK AO2 SLP150 T01110100
KSTS 200553Z AUTO 15006KT 10SM CLR 12/10 A3000 RMK AO2 SLP154 T01170100 10244 20117 51010
KSTS 200453Z AUTO 15005KT 10SM CLR 12/10 A3000 RMK AO2 SLP151 T01220100
KSTS 200353Z AUTO 15007KT 10SM CLR 13/11 A2999 RMK AO2 SLP149 T01330106
KSTS 200253Z AUTO 13010KT 10SM CLR 16/11 A2997 RMK AO2 SLP144 T01610111 53003
KSTS 200153Z 14011KT 10SM CLR 19/12 A2996 RMK AO2 SLP139 T01890117
KSTS 200053Z 15011KT 10SM CLR 22/12 A2995 RMK AO2 SLP137 T02170122